Alabaster, Alabama
Current Conditions -  °F | °C
As of 5:53 PM on Wednesday 17 Dec 2014 (Local Time) from KEET Reporting Station
Clear Clear  
Wind Chill: 43°   Ceiling: Unl
Heat Index: 43°   Visibility: 10mi
Dew Point: 36°   Wind: 0mph
Humidity: 76%   Direction: NA
Pressure: 30.22"   Gusts: NA
Location:  33.25°N, 86.82°W
Report Text: KEET 172353Z AUTO 00000KT 10SM CLR 06/02 A3022 RMK AO2 SLP236 T00610022 10089 20056 51008
Loading
Personal Weather Stations






























Interactive Weather Map New forecast layout! Learn more

10-Day Weather Forecast

Advertisements
Track Severe Weather on mobile